Maryland AWOS List, Phone Numbers

USA |  
| Search AWOS

Rocky Mountain States: Montana | Wyoming | Colorado | New Mexico

Complete weather reports: Maryland

Legend: KFNL = METAR available Follow your local AWOS on AV Mobile = METAR available on AV Mobile
Station Maryland Location Frequency Phone
KAPGFAA ID APG, KAPG 292353Z 19005KT 7SM BKN200 27/20 A3019 Follow KAPG on AV Mobile Phillips Army Air Field / Aberdeen
K61WICAO ID K61W Annapolis Coast Guard Station
KNAKICAO ID KNAK, KNAK 301154Z AUTO 18006KT 10SM SCT060 23/19 A3020 RMK AO2 SLP229 T02280194 10228 20211 51009 Follow KNAK on AV Mobile ANNAPOLIS US NAVAL ACADEMY
KLWXICAO ID KLWX Baltimore / DC Nexrad
KDMHICAO ID KDMH, KDMH 301154Z AUTO 23/19 A3020 RMK AO1 SLP227 T02280194 10233 20217 53006 Follow KDMH on AV Mobile BALTIMORE DOWNTOWN
KMTNFAA ID MTN, AWOS-3, KMTN 301145Z 17007KT 10SM BKN013 23/22 A3021 Follow KMTN on AV Mobile Baltimore / Martin 410-682-8848
KBWIFAA ID BWI, ASOS, KBWI 301154Z 20005KT 10SM SCT010 SCT055 BKN130 23/19 A3019 RMK AO2 SLP223 T02280194 10228 20206 53006 Follow KBWI on AV Mobile BALTIMORE-WASHINGTON INTERNATIONAL 410-691-1278
4MDFAA ID 4MD, Belfort PIER 7
KCGEFAA ID CGE, AWOS-3, KCGE 301156Z AUTO 19005KT 10SM OVC013 23/21 A3023 RMK AO1 Follow KCGE on AV Mobile CAMBRIDGE 120.675 410-228-7559
KADWFAA ID ADW, KADW 301158Z AUTO 20009KT 10SM CLR 23/20 A3020 RMK AO2 SLP231 T02280202 10228 20190 $ Follow KADW on AV Mobile Camp Springs / Andrews Air Force Base
W32FAA ID W32, Belfort WASHINGTON EXECUTIVE/HYDE FIELD
KCGSFAA ID CGS, AWOS-3, KCGS 301155Z AUTO 19003KT 10SM SCT012 23/20 A3020 RMK AO1 Follow KCGS on AV Mobile COLLEGE PARK 121.225 301-864-5497
K66WICAO ID K66W Cove Point Coast Guard Light Station
KCBEFAA ID CBE, AWOS-3, KCBE 301158Z AUTO 00000KT 1/4SM OVC001 19/19 A3021 RMK AO1 Follow KCBE on AV Mobile Cumberland, Greater Cumberland Regional Airport 128.625 304-738-0451
KESNFAA ID ESN, AWOS-3, KESN 301150Z 20006KT 10SM SCT009 SCT120 23/23 A3026 Follow KESN on AV Mobile Easton / Newman Field 124.475 410-822-2817
KFMEFAA ID FME, AWOS-3, KFME 301157Z AUTO 18004KT 10SM SCT011 22/19 A3022 RMK AO1 Follow KFME on AV Mobile Fort Meade / Tipton 123.925
KJWXICAO ID KJWX Fort Ritchie
KFDKFAA ID FDK, AWOS-3, KFDK 301147Z 22006KT 10SM OVC009 22/21 A3021 Follow KFDK on AV Mobile Frederick, Frederick Municipal Airport 124.875 301-600-1457
KGAIFAA ID GAI, AWOS-3, KGAI 301155Z AUTO 19004KT 10SM BKN009 22/19 A3024 RMK AO1 10220 20190 52007 Follow KGAI on AV Mobile GAITHERSBURG 128.275 301-977-2971
KHGRFAA ID HGR, ASOS, KHGR 301153Z 18006KT 10SM CLR 23/18 A3018 RMK AO2 SLP222 T02280183 10228 20211 53006 Follow KHGR on AV Mobile HAGERSTOWN REGIONAL AIRPORT 126.375 301-745-3497
K2W6FAA ID 2W6, AWOS-3, K2W6 301157Z AUTO 22007KT 10SM SCT010 22/19 A3024 RMK AO1 Follow K2W6 on AV Mobile LEONARDTOWN 119.575 301-373-6514
K2G4FAA ID 2G4, AWOS-3, K2G4 301155Z AUTO 20006KT 10SM OVC100 17/ A3024 RMK AO1 Follow K2G4 on AV Mobile OAKLAND 120.125 301-746-8443
KW30ICAO ID KW30 Ocean City
KN80ICAO ID KN80 Ocean City, Ocean City Municipal Airport
KOXBFAA ID OXB, ASOS, KOXB 301153Z AUTO 16003KT 8SM CLR 22/20 A3025 RMK AO2 SLP241 T02170200 10217 20189 53007 TSNO Follow KOXB on AV Mobile OCEAN CITY MUNICIPAL AIRPORT 119.025 410-213-1530
KNHKFAA ID NHK, KNHK 301152Z 22005KT 10SM FEW030 FEW060 SCT250 23/20 A3022 RMK AO2 SLP234 T02280200 10228 20200 53010 Follow KNHK on AV Mobile NAS PATUXENT RIVER MD
KSBYFAA ID SBY, ASOS, KSBY 301154Z 18006KT 10SM CLR 21/20 A3024 RMK AO2 SLP241 T02110200 10211 20167 51011 Follow KSBY on AV Mobile SALISBURY-WICOMICO CTY REG 118.325 410-341-0868
KNUIFAA ID NUI, KNUI 301153Z AUTO 18007KT 10SM 23/21 A3022 RMK AO2 SLP233 T02280206 10228 20217 53012 $ Follow KNUI on AV Mobile KNUI WEBSTER FIELD ANNEX
KW29FAA ID W29, AWOS-3, KW29 301157Z AUTO 18007KT 10SM A3021 RMK AO1 Follow KW29 on AV Mobile STEVENSVILLE 120.575 410-643-8795
K67WICAO ID K67W Stillpond Coast Guard Station
K65WICAO ID K65W Thomas Point Coast Guard Station
KDMWFAA ID DMW, AWOS-3, KDMW 301155Z AUTO 19006KT 10SM BKN006 22/19 A3020 RMK AO2 Follow KDMW on AV Mobile WESTMINSTER 121.25 410-876-1281

Click on the AV Mobile icon AV Mobile icon by any station to follow that AWOS feed on AirportView.net Mobile.

Garmin aera 796 $1999 at Avionics Specialists LLC
Bose A20 Aviation Headsets $995 at Avionics Specialists LLC